createdAt,value
2023-03-10T00:00:40.263Z,98637.03
2023-03-10T00:03:08.085Z,98633.66
2023-03-10T00:05:35.019Z,98638.25
2023-03-10T00:08:01.893Z,98628.38
2023-03-10T00:10:29.846Z,98626.78
2023-03-10T00:12:56.752Z,98623.19
2023-03-10T00:15:24.029Z,98620.81
2023-03-10T00:17:55.466Z,98616.88
2023-03-10T00:20:23.232Z,98625.22
2023-03-10T00:22:50.294Z,98618.56
2023-03-10T00:25:17.194Z,98614.19
2023-03-10T00:27:43.951Z,98612.16
2023-03-10T00:30:11.315Z,98612.38
2023-03-10T00:32:38.193Z,98611.94
2023-03-10T00:35:06.107Z,98612.78
2023-03-10T00:37:35.703Z,98611.75
2023-03-10T00:40:02.480Z,98617.47
2023-03-10T00:42:29.634Z,98608.72
2023-03-10T00:44:56.425Z,98609.50
2023-03-10T00:47:23.204Z,98598.38
2023-03-10T00:49:50.770Z,98596.03
2023-03-10T00:52:17.816Z,98585.91
2023-03-10T00:54:44.770Z,98585.69
2023-03-10T00:57:11.519Z,98587.22
2023-03-10T00:59:50.127Z,98577.13
2023-03-10T01:02:18.934Z,98574.97
2023-03-10T01:04:46.065Z,98558.09
2023-03-10T01:07:12.973Z,98561.56
2023-03-10T01:09:39.946Z,98555.69
2023-03-10T01:12:07.100Z,98553.94
2023-03-10T01:14:33.909Z,98540.91
2023-03-10T01:17:00.728Z,98546.94
2023-03-10T01:19:27.503Z,98534.91
2023-03-10T01:21:54.309Z,98536.78
2023-03-10T01:24:21.110Z,98532.25
2023-03-10T01:26:47.881Z,98532.47
2023-03-10T01:29:14.624Z,98519.97
2023-03-10T01:31:42.491Z,98525.59
2023-03-10T01:34:09.386Z,98520.09
2023-03-10T01:36:36.317Z,98513.75
2023-03-10T01:39:03.193Z,98518.56
2023-03-10T01:41:30.036Z,98511.25
2023-03-10T01:43:57.671Z,98510.31
2023-03-10T01:46:45.162Z,98498.69
2023-03-10T01:49:43.927Z,98500.47
2023-03-10T01:52:16.628Z,98494.09
2023-03-10T01:54:54.136Z,98491.03
2023-03-10T01:57:24.780Z,98485.91
2023-03-10T01:59:53.195Z,98485.56
2023-03-10T02:02:20.469Z,98489.16
2023-03-10T02:04:49.716Z,98482.81
2023-03-10T02:07:24.911Z,98480.94
2023-03-10T02:09:52.948Z,98473.44
2023-03-10T02:12:20.539Z,98465.44
2023-03-10T02:14:49.172Z,98459.16
2023-03-10T02:17:18.425Z,98454.00
2023-03-10T02:20:26.624Z,98455.72
2023-03-10T02:22:53.680Z,98448.53
2023-03-10T02:25:47.947Z,98457.28
2023-03-10T02:28:14.945Z,98443.38
2023-03-10T02:30:49.678Z,98439.63
2023-03-10T02:33:29.133Z,98431.19
2023-03-10T02:36:12.828Z,98426.25
2023-03-10T02:38:39.637Z,98427.41
2023-03-10T02:41:23.447Z,98422.97
2023-03-10T02:43:51.122Z,98424.97
2023-03-10T02:46:26.223Z,98422.38
2023-03-10T02:48:53.054Z,98417.81
2023-03-10T02:51:32.720Z,98411.50
2023-03-10T02:54:03.070Z,98418.81
2023-03-10T02:56:32.398Z,98406.25
2023-03-10T02:59:00.209Z,98403.69
2023-03-10T03:01:28.129Z,98399.97
2023-03-10T03:03:55.642Z,98398.84
2023-03-10T03:06:25.150Z,98394.28
2023-03-10T03:08:52.031Z,98389.53
2023-03-10T03:11:22.164Z,98385.19
2023-03-10T03:13:49.750Z,98388.53
2023-03-10T03:16:16.584Z,98382.81
2023-03-10T03:18:45.117Z,98397.28
2023-03-10T03:21:18.441Z,98389.78
2023-03-10T03:23:47.091Z,98378.09
2023-03-10T03:26:24.370Z,98379.09
2023-03-10T03:28:56.534Z,98367.59
2023-03-10T03:31:27.173Z,98378.50
2023-03-10T03:34:04.586Z,98372.78
2023-03-10T03:36:31.807Z,98370.41
2023-03-10T03:38:58.757Z,98372.66
2023-03-10T03:41:29.204Z,98374.47
2023-03-10T03:43:56.172Z,98370.75
2023-03-10T03:46:23.016Z,98365.00
2023-03-10T03:48:49.881Z,98367.00
2023-03-10T03:51:18.206Z,98352.53
2023-03-10T03:53:45.104Z,98351.94
2023-03-10T03:56:12.573Z,98347.59
2023-03-10T03:58:41.772Z,98354.09
2023-03-10T04:01:08.786Z,98352.31
2023-03-10T04:03:42.588Z,98335.06
2023-03-10T04:06:12.412Z,98324.16
2023-03-10T04:08:39.703Z,98315.88
2023-03-10T04:11:07.102Z,98324.16
2023-03-10T04:13:35.975Z,98320.81
2023-03-10T04:16:04.324Z,98316.66
2023-03-10T04:18:34.831Z,98309.13
2023-03-10T04:21:02.818Z,98306.41
2023-03-10T04:23:30.765Z,98301.88
2023-03-10T04:25:58.093Z,98300.09
2023-03-10T04:28:25.930Z,98292.25
2023-03-10T04:30:52.998Z,98287.25
2023-03-10T04:33:23.185Z,98289.66
2023-03-10T04:35:51.597Z,98292.41
2023-03-10T04:38:23.029Z,98294.25
2023-03-10T04:40:58.734Z,98283.00
2023-03-10T04:43:29.904Z,98274.84
2023-03-10T04:45:57.078Z,98264.53
2023-03-10T04:48:24.593Z,98257.09
2023-03-10T04:50:59.364Z,98255.16
2023-03-10T04:53:29.070Z,98252.34
2023-03-10T04:55:56.566Z,98251.53
2023-03-10T04:58:24.248Z,98239.31
2023-03-10T05:01:02.192Z,98233.66
2023-03-10T05:03:31.070Z,98251.41
2023-03-10T05:05:57.968Z,98247.47
2023-03-10T05:08:25.708Z,98239.44
2023-03-10T05:10:52.515Z,98237.47
2023-03-10T05:13:19.512Z,98229.22
2023-03-10T05:15:46.514Z,98232.19
2023-03-10T05:18:13.879Z,98224.47
2023-03-10T05:20:41.187Z,98216.34
2023-03-10T05:23:08.006Z,98208.91
2023-03-10T05:25:36.317Z,98207.94
2023-03-10T05:28:03.346Z,98204.34
2023-03-10T05:30:30.474Z,98196.09
2023-03-10T05:32:58.463Z,98201.50
2023-03-10T05:35:25.396Z,98205.66
2023-03-10T05:37:52.900Z,98194.56
2023-03-10T05:40:19.940Z,98201.34
2023-03-10T05:42:51.243Z,98199.31
2023-03-10T05:45:20.239Z,98181.97
2023-03-10T05:47:47.489Z,98194.25
2023-03-10T05:50:16.944Z,98185.03
2023-03-10T05:52:45.110Z,98189.03
2023-03-10T05:55:17.940Z,98181.22
2023-03-10T05:57:46.139Z,98195.22
2023-03-10T06:00:14.200Z,98201.97
2023-03-10T06:02:43.674Z,98179.56
2023-03-10T06:05:14.382Z,98179.28
2023-03-10T06:07:41.494Z,98169.25
2023-03-10T06:10:09.583Z,98169.63
2023-03-10T06:12:36.451Z,98167.25
2023-03-10T06:15:03.558Z,98172.94
2023-03-10T06:17:30.424Z,98178.81
2023-03-10T06:19:57.760Z,98169.84
2023-03-10T06:22:24.544Z,98168.91
2023-03-10T06:24:51.309Z,98171.56
2023-03-10T06:27:18.076Z,98156.94
2023-03-10T06:29:44.920Z,98151.16
2023-03-10T06:32:11.837Z,98147.94
2023-03-10T06:34:38.767Z,98153.56
2023-03-10T06:37:05.648Z,98144.53
2023-03-10T06:39:32.481Z,98151.47
2023-03-10T06:42:00.584Z,98140.59
2023-03-10T06:44:27.490Z,98145.31
2023-03-10T06:46:54.255Z,98145.63
2023-03-10T06:49:21.210Z,98139.81
2023-03-10T06:51:47.911Z,98145.03
2023-03-10T06:54:14.705Z,98144.44
2023-03-10T06:56:41.528Z,98143.44
2023-03-10T06:59:09.466Z,98146.66
2023-03-10T07:01:36.528Z,98152.09
2023-03-10T07:04:04.385Z,98142.38
2023-03-10T07:06:31.330Z,98141.50
2023-03-10T07:08:58.475Z,98146.94
2023-03-10T07:11:26.554Z,98139.66
2023-03-10T07:13:55.007Z,98134.47
2023-03-10T07:16:22.633Z,98133.56
2023-03-10T07:18:50.161Z,98138.63
2023-03-10T07:21:19.976Z,98135.88
2023-03-10T07:23:47.230Z,98129.59
2023-03-10T07:26:18.917Z,98129.63
2023-03-10T07:28:46.562Z,98121.34
2023-03-10T07:31:14.720Z,98113.59
2023-03-10T07:33:41.646Z,98120.97
2023-03-10T07:36:10.959Z,98124.38
2023-03-10T07:38:37.788Z,98116.03
2023-03-10T07:41:09.651Z,98121.44
2023-03-10T07:43:37.345Z,98108.41
2023-03-10T07:46:08.612Z,98112.28
2023-03-10T07:48:35.598Z,98105.75
2023-03-10T07:51:03.246Z,98095.31
2023-03-10T07:53:30.462Z,98087.59
2023-03-10T07:55:57.656Z,98085.03
2023-03-10T07:58:24.755Z,98070.50
2023-03-10T08:00:56.550Z,98071.50
2023-03-10T08:03:27.325Z,98068.13
2023-03-10T08:05:58.015Z,98066.06
2023-03-10T08:08:24.771Z,98067.56
2023-03-10T08:10:59.651Z,98053.59
2023-03-10T08:13:26.499Z,98056.69
2023-03-10T08:15:54.022Z,98052.97
2023-03-10T08:18:20.932Z,98044.47
2023-03-10T08:20:47.693Z,98052.53
2023-03-10T08:23:14.469Z,98034.66
2023-03-10T08:25:41.223Z,98041.25
2023-03-10T08:28:08.140Z,98035.09
2023-03-10T08:30:35.382Z,98042.19
2023-03-10T08:33:02.407Z,98040.28
2023-03-10T08:35:29.260Z,98034.91
2023-03-10T08:37:56.132Z,98035.66
2023-03-10T08:40:23.023Z,98022.84
2023-03-10T08:42:49.981Z,98025.09
2023-03-10T08:45:16.798Z,98021.75
2023-03-10T08:47:43.832Z,98019.00
2023-03-10T08:50:12.774Z,98010.50
2023-03-10T08:52:40.511Z,98008.06
2023-03-10T08:55:08.374Z,98008.84
2023-03-10T08:57:35.178Z,98011.47
2023-03-10T09:00:06.335Z,98010.41
2023-03-10T09:02:33.770Z,98010.34
2023-03-10T09:05:00.543Z,98005.75
2023-03-10T09:07:27.431Z,97997.84
2023-03-10T09:09:54.155Z,97998.31
2023-03-10T09:12:20.973Z,97992.44
2023-03-10T09:14:49.164Z,97988.25
2023-03-10T09:17:15.927Z,97990.84
2023-03-10T09:19:42.786Z,97983.47
2023-03-10T09:22:09.623Z,97984.38
2023-03-10T09:24:36.348Z,97978.56
2023-03-10T09:27:03.098Z,97985.06
2023-03-10T09:29:42.702Z,97979.38
2023-03-10T09:32:10.169Z,97972.31
2023-03-10T09:34:37.177Z,97971.47
2023-03-10T09:37:06.874Z,97959.03
2023-03-10T09:39:34.939Z,97957.28
2023-03-10T09:42:37.376Z,97957.56
2023-03-10T09:45:19.760Z,97963.28
2023-03-10T09:48:03.752Z,97951.00
2023-03-10T09:50:52.659Z,97952.41
2023-03-10T09:53:40.232Z,97961.34
2023-03-10T09:56:13.027Z,97955.47
2023-03-10T09:58:58.938Z,97945.81
2023-03-10T10:01:29.854Z,97942.09
2023-03-10T10:04:08.956Z,97933.78
2023-03-10T10:06:39.044Z,97941.16
2023-03-10T10:09:22.498Z,97927.84
2023-03-10T10:11:49.275Z,97926.72
2023-03-10T10:14:29.230Z,97931.66
2023-03-10T10:17:23.530Z,97933.19
2023-03-10T10:19:52.451Z,97929.00
2023-03-10T10:22:34.623Z,97923.94
2023-03-10T10:25:09.497Z,97921.47
2023-03-10T10:27:37.249Z,97919.50
2023-03-10T10:30:27.188Z,97915.75
2023-03-10T10:33:11.559Z,97909.53
2023-03-10T10:36:01.097Z,97904.13
2023-03-10T10:38:30.346Z,97897.56
2023-03-10T10:41:09.006Z,97902.03
2023-03-10T10:43:44.337Z,97897.66
2023-03-10T10:46:14.003Z,97894.06
2023-03-10T10:48:46.470Z,97885.31
2023-03-10T10:51:29.676Z,97891.28
2023-03-10T10:53:57.954Z,97903.00
2023-03-10T10:56:25.370Z,97881.13
2023-03-10T10:59:22.044Z,97879.81
2023-03-10T11:02:31.104Z,97871.78
2023-03-10T11:05:19.575Z,97876.22
2023-03-10T11:07:47.151Z,97858.88
2023-03-10T11:10:33.007Z,97868.97
2023-03-10T11:13:11.520Z,97857.75
2023-03-10T11:15:57.716Z,97842.25
2023-03-10T11:18:42.086Z,97819.22
2023-03-10T11:21:17.505Z,97827.72
2023-03-10T11:24:04.720Z,97828.81
2023-03-10T11:26:55.571Z,97827.91
2023-03-10T11:29:34.319Z,97813.94
2023-03-10T11:32:33.028Z,97807.88
2023-03-10T11:35:06.956Z,97810.97
2023-03-10T11:37:45.117Z,97802.06
2023-03-10T11:40:33.581Z,97801.47
2023-03-10T11:43:18.175Z,97788.94
2023-03-10T11:45:52.876Z,97780.50
2023-03-10T11:48:47.043Z,97776.19
2023-03-10T11:51:27.357Z,97767.81
2023-03-10T11:54:00.081Z,97766.59
2023-03-10T11:56:28.579Z,97761.63
2023-03-10T11:59:00.980Z,97760.41
2023-03-10T12:01:38.355Z,97758.38
2023-03-10T12:04:21.644Z,97757.31
2023-03-10T12:07:07.761Z,97759.31
2023-03-10T12:09:54.722Z,97757.00
2023-03-10T12:12:36.623Z,97749.44
2023-03-10T12:15:20.136Z,97740.94
2023-03-10T12:17:49.383Z,97746.19
2023-03-10T12:20:24.283Z,97742.47
2023-03-10T12:23:21.052Z,97733.94
2023-03-10T12:25:49.212Z,97726.06
2023-03-10T12:28:29.641Z,97717.53
2023-03-10T12:30:59.312Z,97727.25
2023-03-10T12:33:34.660Z,97713.50
2023-03-10T12:36:19.787Z,97726.84
2023-03-10T12:38:57.644Z,97723.56
2023-03-10T12:41:49.396Z,97721.72
2023-03-10T12:44:33.536Z,97732.38
2023-03-10T12:47:09.273Z,97729.00
2023-03-10T12:49:39.227Z,97730.00
2023-03-10T12:52:30.699Z,97729.22
2023-03-10T12:55:21.151Z,97718.44
2023-03-10T12:58:04.619Z,97724.47
2023-03-10T13:01:04.475Z,97722.03
2023-03-10T13:03:38.406Z,97722.34
2023-03-10T13:06:09.490Z,97735.31
2023-03-10T13:08:42.055Z,97735.78
2023-03-10T13:11:19.665Z,97730.34
2023-03-10T13:13:52.237Z,97731.22
2023-03-10T13:16:20.509Z,97730.16
2023-03-10T13:18:49.037Z,97727.53
2023-03-10T13:21:38.244Z,97732.84
2023-03-10T13:24:21.727Z,97734.78
2023-03-10T13:26:48.891Z,97730.16
2023-03-10T13:29:19.210Z,97731.31
2023-03-10T13:31:56.377Z,97738.84
2023-03-10T13:34:27.700Z,97740.47
2023-03-10T13:37:01.707Z,97741.88
2023-03-10T13:39:28.449Z,97733.53
2023-03-10T13:42:00.240Z,97736.59
2023-03-10T13:44:29.344Z,97737.06
2023-03-10T13:47:05.143Z,97741.38
2023-03-10T13:49:35.161Z,97741.53
2023-03-10T13:52:05.797Z,97742.69
2023-03-10T13:54:35.013Z,97753.59
2023-03-10T13:57:10.983Z,97749.69
2023-03-10T13:59:38.752Z,97752.16
2023-03-10T14:02:13.006Z,97757.41
2023-03-10T14:04:43.508Z,97762.06
2023-03-10T14:07:13.804Z,97744.44
2023-03-10T14:09:41.602Z,97752.59
2023-03-10T14:12:10.564Z,97737.91
2023-03-10T14:14:42.355Z,97728.03
2023-03-10T14:17:31.594Z,97728.44
2023-03-10T14:19:58.621Z,97713.09
2023-03-10T14:22:29.094Z,97715.09
2023-03-10T14:24:56.692Z,97719.66
2023-03-10T14:27:24.725Z,97713.84
2023-03-10T14:29:57.631Z,97723.81
2023-03-10T14:32:26.033Z,97721.31
2023-03-10T14:34:52.887Z,97726.88
2023-03-10T14:37:20.189Z,97726.03
2023-03-10T14:39:46.955Z,97727.78
2023-03-10T14:42:30.151Z,97716.69
2023-03-10T14:45:27.823Z,97721.34
2023-03-10T14:47:57.524Z,97725.41
2023-03-10T14:50:26.065Z,97718.84
2023-03-10T14:52:52.935Z,97726.75
2023-03-10T14:55:19.979Z,97721.16
2023-03-10T14:57:49.604Z,97718.97
2023-03-10T15:00:21.464Z,97709.41
2023-03-10T15:02:49.129Z,97705.22
2023-03-10T15:05:21.156Z,97709.44
2023-03-10T15:07:48.988Z,97713.06
2023-03-10T15:10:17.956Z,97696.69
2023-03-10T15:12:45.122Z,97701.19
2023-03-10T15:15:16.413Z,97710.47
2023-03-10T15:17:43.177Z,97713.78
2023-03-10T15:20:23.568Z,97723.94
2023-03-10T15:22:52.067Z,97729.81
2023-03-10T15:25:21.375Z,97727.34
2023-03-10T15:27:49.843Z,97718.53
2023-03-10T15:30:25.949Z,97704.81
2023-03-10T15:32:53.521Z,97708.91
2023-03-10T15:35:21.865Z,97706.56
2023-03-10T15:37:50.669Z,97709.47
2023-03-10T15:40:23.514Z,97707.19
2023-03-10T15:42:51.174Z,97700.53
2023-03-10T15:45:19.334Z,97702.75
2023-03-10T15:47:47.316Z,97703.53
2023-03-10T15:50:16.435Z,97703.84
2023-03-10T15:52:51.301Z,97711.13
2023-03-10T15:55:18.244Z,97712.25
2023-03-10T15:57:48.074Z,97711.31
2023-03-10T16:00:16.989Z,97711.09
2023-03-10T16:02:47.615Z,97700.25
2023-03-10T16:05:15.163Z,97705.84
2023-03-10T16:07:41.955Z,97707.75
2023-03-10T16:10:11.412Z,97704.47
2023-03-10T16:12:39.597Z,97705.84
2023-03-10T16:15:06.814Z,97712.72
2023-03-10T16:17:33.707Z,97701.59
2023-03-10T16:20:02.279Z,97685.66
2023-03-10T16:22:30.289Z,97688.09
2023-03-10T16:24:57.041Z,97689.75
2023-03-10T16:27:23.791Z,97678.41
2023-03-10T16:29:50.558Z,97665.09
2023-03-10T16:32:19.749Z,97646.63
2023-03-10T16:34:46.721Z,97654.28
2023-03-10T16:37:13.574Z,97644.97
2023-03-10T16:39:40.323Z,97664.88
2023-03-10T16:42:07.196Z,97665.72
2023-03-10T16:44:34.059Z,97669.50
2023-03-10T16:47:00.764Z,97680.00
2023-03-10T16:49:27.536Z,97682.22
2023-03-10T16:51:54.275Z,97684.88
2023-03-10T16:54:22.370Z,97693.09
2023-03-10T16:56:53.454Z,97687.72
2023-03-10T16:59:22.286Z,97705.06
2023-03-10T17:01:50.105Z,97712.44
2023-03-10T17:04:17.549Z,97707.31
2023-03-10T17:06:44.858Z,97703.78
2023-03-10T17:09:12.950Z,97707.50
2023-03-10T17:11:43.668Z,97714.81
2023-03-10T17:14:15.371Z,97727.66
2023-03-10T17:16:44.059Z,97731.63
2023-03-10T17:19:20.423Z,97729.41
2023-03-10T17:21:50.056Z,97731.53
2023-03-10T17:24:19.926Z,97750.59
2023-03-10T17:26:47.189Z,97758.97
2023-03-10T17:29:14.199Z,97764.22
2023-03-10T17:31:41.468Z,97764.25
2023-03-10T17:34:12.056Z,97755.47
2023-03-10T17:36:38.852Z,97765.38
2023-03-10T17:39:06.762Z,97772.97
2023-03-10T17:41:35.834Z,97766.97
2023-03-10T17:44:04.805Z,97775.84
2023-03-10T17:46:31.981Z,97767.03
2023-03-10T17:49:00.216Z,97758.69
2023-03-10T17:51:30.279Z,97764.94
2023-03-10T17:53:59.049Z,97772.28
2023-03-10T17:56:26.926Z,97771.75
2023-03-10T17:58:55.375Z,97780.63
2023-03-10T18:01:27.059Z,97786.88
2023-03-10T18:03:56.059Z,97795.28
2023-03-10T18:06:28.605Z,97812.47
2023-03-10T18:08:57.184Z,97806.75
2023-03-10T18:11:25.855Z,97802.34
2023-03-10T18:13:52.853Z,97798.44
2023-03-10T18:16:25.547Z,97798.72
2023-03-10T18:18:53.225Z,97799.25
2023-03-10T18:21:21.350Z,97806.28
2023-03-10T18:23:48.940Z,97802.13
2023-03-10T18:26:19.138Z,97796.41
2023-03-10T18:28:46.801Z,97798.72
2023-03-10T18:31:26.079Z,97787.06
2023-03-10T18:33:52.967Z,97786.53
2023-03-10T18:36:24.123Z,97796.19
2023-03-10T18:38:51.692Z,97780.81
2023-03-10T18:41:27.530Z,97779.00
2023-03-10T18:43:54.613Z,97773.53
2023-03-10T18:46:22.405Z,97772.75
2023-03-10T18:48:55.644Z,97786.03
2023-03-10T18:51:26.384Z,97795.59
2023-03-10T18:53:53.898Z,97792.38
2023-03-10T18:56:20.775Z,97787.69
2023-03-10T18:59:04.334Z,97787.16
2023-03-10T19:01:31.078Z,97796.03
2023-03-10T19:03:57.976Z,97797.34
2023-03-10T19:06:29.508Z,97794.47
2023-03-10T19:08:56.328Z,97802.34
2023-03-10T19:11:24.445Z,97793.50
2023-03-10T19:13:51.774Z,97797.69
2023-03-10T19:16:18.914Z,97801.88
2023-03-10T19:18:45.742Z,97797.94
2023-03-10T19:21:13.119Z,97797.16
2023-03-10T19:23:41.670Z,97796.38
2023-03-10T19:26:09.635Z,97803.97
2023-03-10T19:28:37.194Z,97805.53
2023-03-10T19:31:09.650Z,97802.66
2023-03-10T19:33:38.247Z,97804.75
2023-03-10T19:36:08.949Z,97815.44
2023-03-10T19:38:38.162Z,97805.81
2023-03-10T19:41:10.089Z,97819.84
2023-03-10T19:43:37.562Z,97811.00
2023-03-10T19:46:06.831Z,97814.16
2023-03-10T19:48:33.757Z,97818.84
2023-03-10T19:51:00.874Z,97821.69
2023-03-10T19:53:29.629Z,97823.81
2023-03-10T19:55:58.512Z,97836.81
2023-03-10T19:58:26.040Z,97829.03
2023-03-10T20:00:57.864Z,97832.41
2023-03-10T20:03:27.452Z,97836.31
2023-03-10T20:05:54.941Z,97843.63
2023-03-10T20:08:22.945Z,97847.75
2023-03-10T20:10:50.240Z,97851.44
2023-03-10T20:13:17.155Z,97846.22
2023-03-10T20:15:43.958Z,97850.69
2023-03-10T20:18:10.698Z,97860.31
2023-03-10T20:20:37.460Z,97870.44
2023-03-10T20:23:04.402Z,97863.94
2023-03-10T20:25:31.143Z,97865.78
2023-03-10T20:27:57.888Z,97872.78
2023-03-10T20:30:27.922Z,97880.09
2023-03-10T20:32:55.965Z,97875.66
2023-03-10T20:35:23.886Z,97883.19
2023-03-10T20:37:50.740Z,97878.28
2023-03-10T20:40:23.007Z,97871.22
2023-03-10T20:43:02.223Z,97875.38
2023-03-10T20:45:29.124Z,97864.47
2023-03-10T20:47:56.607Z,97866.56
2023-03-10T20:50:23.926Z,97864.19
2023-03-10T20:52:51.280Z,97866.31
2023-03-10T20:55:21.136Z,97856.69
2023-03-10T20:57:52.913Z,97858.75
2023-03-10T21:00:22.283Z,97859.78
2023-03-10T21:02:53.139Z,97857.72
2023-03-10T21:05:23.732Z,97861.34
2023-03-10T21:07:51.398Z,97862.94
2023-03-10T21:10:19.210Z,97842.66
2023-03-10T21:12:46.300Z,97850.91
2023-03-10T21:15:16.358Z,97857.19
2023-03-10T21:17:43.659Z,97854.06
2023-03-10T21:20:11.691Z,97848.88
2023-03-10T21:22:39.828Z,97831.47
2023-03-10T21:25:12.611Z,97849.13
2023-03-10T21:27:39.479Z,97844.19
2023-03-10T21:30:09.797Z,97844.19
2023-03-10T21:32:37.343Z,97854.34
2023-03-10T21:35:05.181Z,97846.00
2023-03-10T21:37:32.288Z,97868.59
2023-03-10T21:39:59.083Z,97851.44
2023-03-10T21:42:25.839Z,97863.09
2023-03-10T21:44:55.206Z,97857.16
2023-03-10T21:47:22.003Z,97870.16
2023-03-10T21:49:48.788Z,97870.66
2023-03-10T21:52:17.961Z,97868.28
2023-03-10T21:54:44.861Z,97870.41
2023-03-10T21:57:11.978Z,97859.22
2023-03-10T21:59:39.204Z,97866.75
2023-03-10T22:02:06.960Z,97867.53
2023-03-10T22:04:33.813Z,97858.16
2023-03-10T22:07:01.009Z,97858.72
2023-03-10T22:09:28.532Z,97868.06
2023-03-10T22:11:55.370Z,97865.47
2023-03-10T22:14:24.373Z,97847.53
2023-03-10T22:16:51.285Z,97865.47
2023-03-10T22:19:18.038Z,97863.38
2023-03-10T22:21:44.816Z,97857.66
2023-03-10T22:24:13.836Z,97852.72
2023-03-10T22:26:40.745Z,97862.31
2023-03-10T22:29:08.444Z,97871.13
2023-03-10T22:31:35.305Z,97868.00
2023-03-10T22:34:02.228Z,97872.44
2023-03-10T22:36:29.149Z,97868.28
2023-03-10T22:38:55.920Z,97867.22
2023-03-10T22:41:22.801Z,97883.06
2023-03-10T22:43:51.733Z,97877.84
2023-03-10T22:46:18.738Z,97874.22
2023-03-10T22:48:45.729Z,97886.19
2023-03-10T22:51:18.242Z,97883.06
2023-03-10T22:53:48.564Z,97890.06
2023-03-10T22:56:16.246Z,97876.25
2023-03-10T22:58:43.258Z,97891.84
2023-03-10T23:01:10.124Z,97890.28
2023-03-10T23:03:36.958Z,97895.22
2023-03-10T23:06:05.547Z,97898.06
2023-03-10T23:08:32.578Z,97897.81
2023-03-10T23:10:59.347Z,97901.19
2023-03-10T23:13:26.198Z,97893.38
2023-03-10T23:15:53.081Z,97899.31
2023-03-10T23:18:19.931Z,97895.94
2023-03-10T23:20:49.173Z,97909.97
2023-03-10T23:23:17.344Z,97900.09
2023-03-10T23:25:47.255Z,97915.94
2023-03-10T23:28:15.279Z,97924.50
2023-03-10T23:30:43.642Z,97923.94
2023-03-10T23:33:17.043Z,97915.31
2023-03-10T23:35:46.280Z,97917.09
2023-03-10T23:38:13.168Z,97924.09
2023-03-10T23:40:39.967Z,97916.06
2023-03-10T23:43:08.166Z,97929.03
2023-03-10T23:45:37.323Z,97909.78
2023-03-10T23:48:06.271Z,97924.56
2023-03-10T23:50:36.590Z,97919.91
2023-03-10T23:53:04.867Z,97929.50
2023-03-10T23:55:35.492Z,97923.22
2023-03-10T23:58:02.698Z,97932.03
